createdAt,value
2022-10-20T00:00:01.709Z,58.25
2022-10-20T00:02:29.434Z,58.03
2022-10-20T00:04:57.050Z,58.07
2022-10-20T00:07:24.372Z,56.90
2022-10-20T00:09:51.830Z,57.12
2022-10-20T00:12:19.417Z,55.46
2022-10-20T00:14:46.759Z,57.54
2022-10-20T00:17:14.121Z,57.42
2022-10-20T00:19:41.677Z,57.49
2022-10-20T00:22:08.992Z,57.97
2022-10-20T00:24:36.285Z,57.68
2022-10-20T00:27:03.894Z,57.70
2022-10-20T00:29:31.232Z,57.64
2022-10-20T00:31:58.546Z,57.06
2022-10-20T00:34:26.123Z,57.76
2022-10-20T00:36:53.457Z,57.87
2022-10-20T00:39:20.797Z,58.22
2022-10-20T00:41:48.387Z,58.04
2022-10-20T00:44:53.213Z,58.03
2022-10-20T00:47:40.719Z,57.58
2022-10-20T00:50:13.340Z,58.72
2022-10-20T00:52:40.987Z,58.61
2022-10-20T00:55:08.672Z,58.53
2022-10-20T00:57:36.193Z,58.47
2022-10-20T01:00:05.965Z,58.80
2022-10-20T01:02:33.261Z,58.88
2022-10-20T01:05:00.802Z,57.81
2022-10-20T01:07:28.389Z,58.54
2022-10-20T01:09:55.809Z,59.00
2022-10-20T01:12:32.600Z,59.24
2022-10-20T01:18:17.350Z,59.06
2022-10-20T01:21:17.392Z,57.65
2022-10-20T01:24:07.881Z,58.88
2022-10-20T01:26:47.572Z,59.81
2022-10-20T01:29:23.868Z,59.92
2022-10-20T01:32:17.190Z,60.40
2022-10-20T01:34:59.421Z,60.00
2022-10-20T01:38:16.478Z,59.74
2022-10-20T01:40:51.286Z,59.82
2022-10-20T01:43:20.060Z,60.17
2022-10-20T01:45:47.896Z,59.66
2022-10-20T01:48:16.692Z,60.03
2022-10-20T01:50:44.288Z,59.79
2022-10-20T01:53:11.627Z,59.75
2022-10-20T01:55:39.123Z,59.87
2022-10-20T01:58:11.576Z,59.58
2022-10-20T02:00:38.901Z,59.75
2022-10-20T02:03:13.454Z,59.67
2022-10-20T02:06:05.630Z,60.07
2022-10-20T02:08:48.061Z,59.84
2022-10-20T02:11:48.203Z,59.23
2022-10-20T02:14:16.395Z,58.93
2022-10-20T02:16:47.133Z,59.27
2022-10-20T02:19:14.549Z,59.07
2022-10-20T02:21:42.165Z,59.54
2022-10-20T02:24:09.564Z,59.56
2022-10-20T02:26:37.921Z,59.93
2022-10-20T02:29:10.914Z,59.78
2022-10-20T02:31:38.238Z,59.80
2022-10-20T02:34:05.813Z,59.02
2022-10-20T02:36:38.265Z,59.60
2022-10-20T02:39:06.023Z,59.32
2022-10-20T02:41:33.388Z,60.19
2022-10-20T02:44:00.775Z,60.15
2022-10-20T02:46:28.415Z,60.24
2022-10-20T02:48:55.726Z,59.99
2022-10-20T02:51:23.017Z,60.16
2022-10-20T02:53:50.612Z,60.23
2022-10-20T02:56:18.127Z,60.15
2022-10-20T02:58:45.457Z,60.20
2022-10-20T03:01:13.081Z,60.39
2022-10-20T03:03:40.441Z,60.59
2022-10-20T03:06:12.031Z,60.40
2022-10-20T03:08:39.671Z,60.21
2022-10-20T03:11:07.019Z,60.20
2022-10-20T03:13:34.465Z,60.50
2022-10-20T03:16:02.180Z,60.40
2022-10-20T03:18:29.492Z,60.05
2022-10-20T03:20:56.835Z,60.12
2022-10-20T03:23:24.428Z,61.07
2022-10-20T03:25:51.717Z,59.68
2022-10-20T03:28:19.208Z,60.36
2022-10-20T03:30:47.158Z,60.42
2022-10-20T03:33:14.464Z,61.13
2022-10-20T03:35:41.809Z,61.07
2022-10-20T03:38:09.382Z,61.78
2022-10-20T03:40:36.691Z,61.24
2022-10-20T03:43:04.022Z,60.58
2022-10-20T03:45:31.590Z,60.03
2022-10-20T03:47:58.933Z,60.22
2022-10-20T03:50:26.354Z,60.78
2022-10-20T03:52:53.934Z,61.01
2022-10-20T03:55:21.287Z,60.06
2022-10-20T03:57:48.605Z,59.87
2022-10-20T04:00:16.238Z,59.96
2022-10-20T04:02:44.883Z,59.25
2022-10-20T04:05:16.603Z,59.65
2022-10-20T04:07:44.179Z,59.19
2022-10-20T04:10:11.750Z,59.61
2022-10-20T04:12:39.507Z,60.02
2022-10-20T04:15:08.034Z,59.52
2022-10-20T04:17:36.833Z,59.21
2022-10-20T04:20:05.456Z,58.75
2022-10-20T04:22:33.138Z,59.66
2022-10-20T04:25:00.596Z,59.49
2022-10-20T04:27:28.325Z,58.53
2022-10-20T04:29:55.903Z,59.63
2022-10-20T04:32:23.258Z,59.37
2022-10-20T04:34:50.621Z,60.29
2022-10-20T04:37:18.234Z,60.14
2022-10-20T04:39:45.795Z,60.12
2022-10-20T04:42:13.107Z,59.98
2022-10-20T04:44:40.686Z,59.54
2022-10-20T04:47:08.002Z,60.07
2022-10-20T04:49:35.342Z,59.98
2022-10-20T04:52:03.065Z,60.55
2022-10-20T04:54:30.372Z,59.34
2022-10-20T04:56:57.750Z,59.51
2022-10-20T04:59:25.360Z,59.01
2022-10-20T05:01:52.721Z,59.48
2022-10-20T05:04:21.912Z,59.93
2022-10-20T05:06:49.632Z,59.38
2022-10-20T05:09:17.067Z,59.07
2022-10-20T05:11:44.472Z,59.33
2022-10-20T05:14:12.048Z,58.31
2022-10-20T05:16:39.405Z,58.11
2022-10-20T05:19:06.995Z,60.00
2022-10-20T05:21:34.697Z,59.33
2022-10-20T05:24:03.438Z,59.49
2022-10-20T05:26:34.494Z,59.46
2022-10-20T05:29:06.145Z,59.42
2022-10-20T05:31:36.811Z,59.03
2022-10-20T05:34:04.467Z,60.18
2022-10-20T05:36:31.790Z,59.47
2022-10-20T05:38:59.309Z,59.51
2022-10-20T05:41:33.358Z,59.71
2022-10-20T05:44:04.759Z,59.57
2022-10-20T05:46:34.622Z,58.94
2022-10-20T05:49:02.579Z,59.34
2022-10-20T05:51:31.959Z,57.45
2022-10-20T05:53:59.708Z,59.65
2022-10-20T05:56:27.841Z,60.04
2022-10-20T05:58:55.257Z,60.09
2022-10-20T06:01:27.613Z,59.63
2022-10-20T06:03:59.228Z,60.25
2022-10-20T06:06:29.206Z,59.75
2022-10-20T06:08:57.920Z,59.48
2022-10-20T06:11:25.408Z,59.00
2022-10-20T06:13:53.306Z,59.43
2022-10-20T06:16:22.174Z,59.64
2022-10-20T06:18:49.921Z,59.48
2022-10-20T06:21:21.455Z,59.43
2022-10-20T06:23:49.161Z,58.76
2022-10-20T06:26:18.464Z,59.29
2022-10-20T06:28:47.051Z,59.33
2022-10-20T06:31:14.549Z,59.26
2022-10-20T06:33:42.001Z,58.61
2022-10-20T06:36:09.590Z,58.31
2022-10-20T06:38:37.362Z,59.04
2022-10-20T06:41:05.223Z,58.24
2022-10-20T06:43:32.662Z,57.80
2022-10-20T06:46:08.191Z,57.73
2022-10-20T06:48:35.617Z,57.37
2022-10-20T06:51:08.341Z,56.93
2022-10-20T06:53:36.291Z,56.95
2022-10-20T06:56:06.310Z,57.30
2022-10-20T06:58:34.650Z,57.47
2022-10-20T07:01:05.553Z,57.09
2022-10-20T07:03:37.514Z,57.67
2022-10-20T07:06:05.501Z,56.47
2022-10-20T07:08:33.775Z,56.91
2022-10-20T07:11:02.417Z,56.50
2022-10-20T07:13:30.064Z,55.85
2022-10-20T07:15:57.841Z,55.49
2022-10-20T07:18:26.092Z,55.51
2022-10-20T07:20:57.195Z,55.58
2022-10-20T07:23:25.274Z,55.67
2022-10-20T07:25:52.776Z,55.21
2022-10-20T07:28:21.794Z,54.65
2022-10-20T07:30:49.436Z,54.54
2022-10-20T07:33:16.797Z,54.45
2022-10-20T07:35:44.222Z,53.56
2022-10-20T07:38:11.830Z,53.87
2022-10-20T07:40:39.150Z,54.10
2022-10-20T07:43:06.506Z,53.89
2022-10-20T07:45:34.093Z,53.96
2022-10-20T07:48:02.046Z,53.88
2022-10-20T07:50:29.393Z,53.34
2022-10-20T07:52:57.038Z,53.54
2022-10-20T07:55:38.200Z,54.19
2022-10-20T07:58:06.566Z,53.17
2022-10-20T08:00:33.986Z,52.68
2022-10-20T08:03:01.762Z,52.40
2022-10-20T08:05:29.642Z,52.45
2022-10-20T08:07:58.317Z,52.04
2022-10-20T08:10:26.003Z,51.32
2022-10-20T08:12:53.381Z,51.24
2022-10-20T08:15:20.719Z,51.36
2022-10-20T08:17:48.311Z,51.57
2022-10-20T08:20:22.481Z,51.06
2022-10-20T08:22:52.560Z,51.14
2022-10-20T08:25:19.885Z,50.89
2022-10-20T08:27:47.367Z,51.59
2022-10-20T08:30:29.912Z,51.05
2022-10-20T08:33:02.884Z,50.74
2022-10-20T08:35:37.085Z,50.61
2022-10-20T08:38:06.071Z,50.28
2022-10-20T08:40:34.241Z,50.32
2022-10-20T08:43:01.592Z,51.24
2022-10-20T08:45:29.444Z,50.91
2022-10-20T08:47:57.793Z,50.74
2022-10-20T08:50:28.010Z,50.87
2022-10-20T08:52:57.640Z,50.36
2022-10-20T08:55:32.478Z,50.16
2022-10-20T08:58:05.237Z,51.05
2022-10-20T09:00:33.083Z,50.37
2022-10-20T09:03:17.645Z,50.61
2022-10-20T09:05:53.256Z,50.19
2022-10-20T09:08:20.725Z,49.13
2022-10-20T09:11:09.326Z,48.95
2022-10-20T09:13:37.083Z,48.21
2022-10-20T09:16:28.569Z,48.39
2022-10-20T09:19:07.769Z,48.52
2022-10-20T09:21:35.364Z,48.31
2022-10-20T09:24:05.108Z,47.96
2022-10-20T09:26:54.645Z,48.14
2022-10-20T09:29:34.857Z,48.85
2022-10-20T09:32:16.792Z,48.39
2022-10-20T09:34:49.801Z,47.94
2022-10-20T09:37:18.903Z,47.94
2022-10-20T09:39:58.596Z,46.77
2022-10-20T09:42:31.687Z,47.07
2022-10-20T09:45:07.568Z,46.87
2022-10-20T09:47:35.164Z,46.18
2022-10-20T09:50:04.554Z,47.16
2022-10-20T09:52:40.691Z,47.39
2022-10-20T09:55:15.543Z,46.08
2022-10-20T09:57:47.111Z,45.91
2022-10-20T10:00:36.869Z,46.13
2022-10-20T10:03:21.065Z,46.88
2022-10-20T10:05:56.183Z,46.24
2022-10-20T10:08:26.044Z,46.88
2022-10-20T10:11:04.657Z,46.25
2022-10-20T10:13:38.833Z,46.68
2022-10-20T10:16:10.519Z,46.87
2022-10-20T10:18:38.446Z,46.16
2022-10-20T10:21:13.880Z,47.33
2022-10-20T10:24:30.961Z,48.17
2022-10-20T10:26:58.498Z,47.84
2022-10-20T10:29:35.713Z,47.44
2022-10-20T10:32:14.966Z,47.22
2022-10-20T10:35:02.442Z,47.03
2022-10-20T10:37:32.381Z,46.70
2022-10-20T10:40:13.539Z,46.80
2022-10-20T10:42:55.991Z,47.23
2022-10-20T10:45:41.946Z,46.19
2022-10-20T10:48:45.620Z,46.76
2022-10-20T10:51:20.961Z,46.11
2022-10-20T10:54:11.989Z,45.42
2022-10-20T10:56:50.819Z,45.67
2022-10-20T10:59:23.139Z,45.61
2022-10-20T11:01:59.792Z,45.62
2022-10-20T11:04:36.378Z,44.37
2022-10-20T11:07:32.396Z,43.90
2022-10-20T11:10:21.469Z,44.61
2022-10-20T11:13:27.056Z,44.23
2022-10-20T11:16:08.006Z,44.06
2022-10-20T11:18:50.849Z,44.38
2022-10-20T11:21:46.656Z,44.04
2022-10-20T11:24:32.411Z,44.31
2022-10-20T11:27:12.187Z,43.51
2022-10-20T11:30:15.385Z,43.19
2022-10-20T11:32:48.211Z,43.74
2022-10-20T11:35:30.105Z,43.24
2022-10-20T11:38:20.532Z,42.76
2022-10-20T11:40:51.225Z,42.87
2022-10-20T11:43:39.831Z,43.49
2022-10-20T11:46:10.621Z,43.57
2022-10-20T11:48:51.698Z,43.82
2022-10-20T11:51:31.918Z,41.96
2022-10-20T11:54:08.591Z,42.00
2022-10-20T11:56:45.304Z,42.24
2022-10-20T11:59:30.509Z,41.62
2022-10-20T12:02:19.197Z,42.04
2022-10-20T12:04:49.895Z,41.89
2022-10-20T12:08:11.013Z,41.93
2022-10-20T12:11:08.867Z,41.59
2022-10-20T12:13:39.013Z,43.00
2022-10-20T12:16:06.825Z,42.43
2022-10-20T12:18:35.261Z,43.27
2022-10-20T12:21:03.635Z,41.92
2022-10-20T12:23:43.574Z,42.29
2022-10-20T12:26:31.996Z,42.33
2022-10-20T12:29:07.452Z,42.41
2022-10-20T12:32:12.576Z,42.87
2022-10-20T12:34:41.157Z,42.91
2022-10-20T12:37:09.261Z,41.79
2022-10-20T12:39:36.622Z,42.33
2022-10-20T12:42:05.303Z,41.65
2022-10-20T12:44:40.761Z,42.66
2022-10-20T12:47:08.741Z,43.38
2022-10-20T12:49:40.673Z,43.17
2022-10-20T12:52:15.501Z,43.07
2022-10-20T12:54:48.327Z,41.98
2022-10-20T12:57:41.353Z,41.78
2022-10-20T13:00:24.041Z,41.66
2022-10-20T13:02:52.857Z,41.20
2022-10-20T13:05:20.371Z,40.88
2022-10-20T13:07:50.229Z,41.58
2022-10-20T13:10:27.178Z,41.67
2022-10-20T13:13:01.053Z,41.29
2022-10-20T13:15:35.730Z,40.48
2022-10-20T13:18:19.985Z,41.76
2022-10-20T13:21:03.587Z,41.32
2022-10-20T13:23:37.517Z,42.20
2022-10-20T13:26:18.229Z,42.40
2022-10-20T13:28:46.990Z,42.53
2022-10-20T13:31:33.564Z,44.48
2022-10-20T13:34:22.048Z,43.51
2022-10-20T13:37:21.679Z,41.71
2022-10-20T13:40:10.562Z,42.56
2022-10-20T13:43:06.719Z,42.17
2022-10-20T13:45:41.704Z,42.56
2022-10-20T13:48:15.105Z,42.07
2022-10-20T13:50:43.811Z,42.22
2022-10-20T13:53:25.959Z,42.87
2022-10-20T13:56:16.360Z,42.26
2022-10-20T13:59:05.898Z,43.17
2022-10-20T14:01:34.959Z,42.13
2022-10-20T14:04:02.928Z,43.11
2022-10-20T14:06:32.164Z,42.33
2022-10-20T14:09:20.288Z,43.36
2022-10-20T14:11:50.489Z,43.79
2022-10-20T14:14:20.773Z,43.33
2022-10-20T14:17:05.385Z,43.76
2022-10-20T14:19:33.554Z,42.84
2022-10-20T14:22:11.673Z,42.70
2022-10-20T14:24:42.260Z,42.48
2022-10-20T14:27:18.805Z,43.20
2022-10-20T14:29:46.238Z,43.02
2022-10-20T14:32:21.818Z,43.95
2022-10-20T14:34:56.352Z,44.32
2022-10-20T14:37:50.850Z,44.97
2022-10-20T14:40:27.150Z,44.31
2022-10-20T14:43:00.112Z,44.72
2022-10-20T14:45:39.407Z,43.83
2022-10-20T14:48:09.634Z,43.51
2022-10-20T14:50:37.607Z,43.94
2022-10-20T14:53:25.832Z,45.12
2022-10-20T14:55:54.720Z,44.30
2022-10-20T14:58:36.940Z,43.88
2022-10-20T15:01:24.741Z,44.34
2022-10-20T15:04:15.304Z,44.35
2022-10-20T15:06:43.597Z,44.78
2022-10-20T15:09:25.036Z,44.96
2022-10-20T15:11:52.612Z,45.51
2022-10-20T15:14:19.979Z,46.02
2022-10-20T15:16:48.432Z,46.67
2022-10-20T15:19:24.976Z,47.39
2022-10-20T15:22:10.938Z,48.03
2022-10-20T15:24:38.514Z,48.36
2022-10-20T15:27:06.278Z,49.35
2022-10-20T15:29:33.635Z,49.46
2022-10-20T15:32:01.282Z,50.12
2022-10-20T15:34:28.627Z,50.44
2022-10-20T15:36:55.985Z,50.69
2022-10-20T15:39:23.563Z,50.96
2022-10-20T15:41:53.746Z,51.30
2022-10-20T15:44:22.258Z,51.61
2022-10-20T15:46:53.516Z,51.42
2022-10-20T15:49:21.121Z,51.73
2022-10-20T15:51:48.470Z,51.86
2022-10-20T15:54:18.030Z,52.14
2022-10-20T15:56:45.387Z,52.54
2022-10-20T15:59:12.770Z,52.66
2022-10-20T16:01:40.450Z,52.79
2022-10-20T16:04:23.269Z,53.09
2022-10-20T16:06:57.627Z,53.33
2022-10-20T16:09:26.868Z,53.58
2022-10-20T16:11:54.225Z,53.79
2022-10-20T16:14:21.578Z,53.75
2022-10-20T16:16:49.185Z,54.01
2022-10-20T16:19:16.524Z,54.25
2022-10-20T16:21:43.848Z,54.55
2022-10-20T16:24:11.508Z,54.40
2022-10-20T16:26:38.842Z,54.57
2022-10-20T16:29:06.173Z,54.73
2022-10-20T16:31:33.759Z,54.87
2022-10-20T16:34:01.136Z,54.98
2022-10-20T16:36:28.441Z,55.08
2022-10-20T16:38:56.845Z,55.19
2022-10-20T16:41:24.229Z,55.36
2022-10-20T16:43:51.599Z,55.39
2022-10-20T16:46:19.255Z,55.30
2022-10-20T16:48:48.216Z,55.37
2022-10-20T16:51:16.057Z,55.71
2022-10-20T16:53:43.879Z,56.00
2022-10-20T16:56:15.197Z,56.05
2022-10-20T16:58:45.878Z,55.93
2022-10-20T17:01:13.625Z,56.07
2022-10-20T17:06:15.533Z,56.26
2022-10-20T17:08:42.960Z,56.50
2022-10-20T17:11:15.912Z,56.50
2022-10-20T17:13:46.154Z,56.31
2022-10-20T17:16:23.611Z,56.49
2022-10-20T17:18:54.153Z,56.45
2022-10-20T17:21:21.672Z,56.45
2022-10-20T17:23:49.028Z,56.68
2022-10-20T17:26:21.233Z,56.76
2022-10-20T17:28:52.185Z,57.27
2022-10-20T17:31:19.826Z,57.70
2022-10-20T17:33:47.262Z,57.46
2022-10-20T17:36:14.720Z,57.65
2022-10-20T17:38:42.444Z,58.02
2022-10-20T17:41:14.064Z,57.51
2022-10-20T17:43:41.738Z,57.76
2022-10-20T17:46:13.426Z,57.83
2022-10-20T17:48:40.802Z,58.30
2022-10-20T17:51:21.848Z,58.05
2022-10-20T17:53:50.390Z,58.15
2022-10-20T17:56:18.822Z,58.57
2022-10-20T17:58:47.165Z,58.82
2022-10-20T18:01:15.310Z,58.72
2022-10-20T18:03:43.158Z,59.16
2022-10-20T18:06:11.434Z,59.28
2022-10-20T18:08:38.822Z,59.49
2022-10-20T18:11:33.230Z,59.87
2022-10-20T18:14:00.661Z,59.71
2022-10-20T18:16:30.187Z,59.46
2022-10-20T18:21:30.755Z,59.66
2022-10-20T18:24:02.014Z,59.66
2022-10-20T18:26:30.670Z,59.94
2022-10-20T18:28:58.206Z,59.84
2022-10-20T18:31:26.516Z,59.78
2022-10-20T18:34:02.562Z,59.83
2022-10-20T18:36:33.236Z,59.97
2022-10-20T18:39:00.910Z,60.40
2022-10-20T18:41:35.338Z,60.30
2022-10-20T18:44:02.910Z,60.72
2022-10-20T18:46:30.867Z,60.16
2022-10-20T18:48:58.262Z,60.46
2022-10-20T18:51:26.181Z,60.19
2022-10-20T18:53:55.183Z,60.68
2022-10-20T18:56:23.730Z,60.54
2022-10-20T18:58:52.748Z,60.40
2022-10-20T19:01:21.964Z,60.47
2022-10-20T19:03:50.289Z,60.31
2022-10-20T19:06:27.563Z,60.29
2022-10-20T19:08:56.348Z,60.43
2022-10-20T19:11:25.811Z,60.64
2022-10-20T19:13:53.173Z,60.67
2022-10-20T19:16:22.265Z,60.67
2022-10-20T19:18:51.246Z,60.92
2022-10-20T19:23:53.196Z,60.67
2022-10-20T19:26:22.555Z,60.82
2022-10-20T19:28:58.387Z,60.57
2022-10-20T19:31:38.195Z,60.33
2022-10-20T19:34:13.894Z,60.38
2022-10-20T19:36:41.534Z,61.09
2022-10-20T19:39:09.896Z,61.03
2022-10-20T19:41:37.405Z,60.72
2022-10-20T19:44:05.174Z,60.57
2022-10-20T19:46:32.620Z,60.69
2022-10-20T19:48:59.990Z,61.17
2022-10-20T19:51:27.615Z,60.86
2022-10-20T19:53:54.934Z,60.43
2022-10-20T19:56:22.231Z,60.73
2022-10-20T19:58:49.848Z,61.18
2022-10-20T20:01:17.262Z,60.88
2022-10-20T20:03:45.100Z,61.04
2022-10-20T20:06:17.279Z,61.43
2022-10-20T20:08:45.972Z,60.74
2022-10-20T20:11:23.358Z,59.92
2022-10-20T20:13:51.594Z,60.59
2022-10-20T20:16:18.995Z,60.96
2022-10-20T20:18:46.417Z,60.88
2022-10-20T20:21:14.458Z,60.94
2022-10-20T20:23:58.307Z,61.02
2022-10-20T20:26:28.275Z,60.78
2022-10-20T20:28:55.625Z,60.39
2022-10-20T20:31:22.965Z,60.87
2022-10-20T20:33:50.586Z,61.35
2022-10-20T20:36:17.968Z,61.02
2022-10-20T20:38:45.638Z,60.67
2022-10-20T20:41:14.809Z,60.39
2022-10-20T20:43:45.025Z,60.79
2022-10-20T20:46:16.880Z,61.07
2022-10-20T20:48:44.316Z,60.92
2022-10-20T20:51:12.287Z,61.35
2022-10-20T20:53:40.040Z,60.72
2022-10-20T20:56:09.585Z,60.71
2022-10-20T20:58:36.957Z,60.85
2022-10-20T21:01:05.230Z,61.63
2022-10-20T21:03:32.775Z,61.66
2022-10-20T21:06:07.625Z,61.90
2022-10-20T21:08:36.601Z,61.85
2022-10-20T21:11:08.045Z,61.57
2022-10-20T21:13:35.936Z,61.63
2022-10-20T21:16:15.702Z,61.77
2022-10-20T21:18:44.458Z,61.60
2022-10-20T21:21:16.854Z,61.64
2022-10-20T21:23:44.446Z,60.74
2022-10-20T21:26:12.502Z,61.43
2022-10-20T21:28:40.127Z,61.15
2022-10-20T21:31:08.875Z,60.51
2022-10-20T21:33:36.446Z,60.33
2022-10-20T21:36:05.011Z,62.50
2022-10-20T21:38:33.051Z,62.50
2022-10-20T21:41:08.127Z,61.58
2022-10-20T21:43:36.651Z,62.00
2022-10-20T21:46:17.255Z,60.69
2022-10-20T21:48:45.457Z,60.57
2022-10-20T21:51:14.583Z,60.68
2022-10-20T21:53:41.939Z,60.30
2022-10-20T21:56:09.744Z,60.45
2022-10-20T21:58:37.303Z,60.31
2022-10-20T22:01:15.502Z,59.94
2022-10-20T22:03:43.655Z,59.67
2022-10-20T22:06:11.455Z,59.50
2022-10-20T22:08:39.863Z,59.19
2022-10-20T22:11:15.696Z,58.54
2022-10-20T22:13:43.049Z,58.65
2022-10-20T22:16:12.874Z,58.23
2022-10-20T22:18:40.214Z,59.13
2022-10-20T22:21:12.469Z,58.51
2022-10-20T22:23:41.853Z,59.32
2022-10-20T22:26:09.303Z,59.53
2022-10-20T22:28:37.071Z,59.37
2022-10-20T22:31:05.618Z,58.53
2022-10-20T22:33:33.063Z,58.28
2022-10-20T22:36:00.399Z,58.53
2022-10-20T22:38:27.973Z,58.71
2022-10-20T22:41:01.654Z,58.84
2022-10-20T22:43:29.535Z,58.52
2022-10-20T22:45:57.057Z,58.53
2022-10-20T22:48:24.455Z,58.31
2022-10-20T22:50:52.144Z,58.84
2022-10-20T22:53:19.637Z,58.72
2022-10-20T22:55:47.994Z,58.86
2022-10-20T22:58:15.585Z,58.83
2022-10-20T23:00:43.811Z,58.97
2022-10-20T23:03:11.243Z,58.97
2022-10-20T23:05:38.845Z,58.50
2022-10-20T23:08:06.342Z,58.96
2022-10-20T23:10:33.662Z,58.10
2022-10-20T23:13:01.268Z,58.87
2022-10-20T23:15:28.613Z,59.39
2022-10-20T23:17:55.962Z,59.88
2022-10-20T23:20:23.540Z,59.96
2022-10-20T23:22:50.892Z,59.76
2022-10-20T23:25:18.208Z,60.02
2022-10-20T23:27:45.769Z,59.46
2022-10-20T23:30:13.151Z,59.94
2022-10-20T23:32:40.539Z,60.03
2022-10-20T23:35:08.442Z,59.86
2022-10-20T23:37:38.193Z,60.06
2022-10-20T23:40:06.302Z,60.07
2022-10-20T23:42:33.865Z,59.77
2022-10-20T23:45:02.511Z,60.08
2022-10-20T23:47:29.829Z,60.12
2022-10-20T23:49:57.414Z,60.08
2022-10-20T23:52:24.759Z,59.86
2022-10-20T23:54:52.090Z,59.74
2022-10-20T23:57:19.731Z,59.67
2022-10-20T23:59:47.041Z,59.93
